Time;durP1;ratioP1;P1;durP2;ratioP2;P2;SDS_P1;SDS_P2;PMS_P1;PMS_P2;Temp;Humidity;BMP_temperature;BMP_pressure;BME280_temperature;BME280_humidity;BME280_pressure;Samples;Min_cycle;Max_cycle;Signal;HPM_P1;HPM_P2
2023/09/05 00:01:03;;;;;;;1.13;1.10;;;;;;;;;;6281447;22;20494;-87
2023/09/05 00:03:40;;;;;;;0.73;0.73;;;;;;;;;;6281870;22;20756;-86
2023/09/05 00:06:19;;;;;;;2.30;2.20;;;;;;;;;;6280917;22;20477;-88
2023/09/05 00:10:38;;;;;;;;;;;;;;;;;;;;;
2023/09/05 00:18:55;;;;;;;;;;;;;;;;;;;;;
2023/09/05 00:22:46;;;;;;;;;;;;;;;;;;;;;
2023/09/05 00:37:01;;;;;;;1.83;1.73;;;15.30;99.90;;;;;;5996502;23;20396;-87
2023/09/05 00:42:28;;;;;;;1.30;1.30;;;;;;;;;;6053535;23;20474;-85
2023/09/05 00:45:28;;;;;;;1.60;1.00;;;;;;;;;;6137806;23;20403;-86
2023/09/05 00:48:01;;;;;;;0.70;0.70;;;;;;;;;;6160058;23;20403;-87
2023/09/05 00:50:55;;;;;;;4.10;2.50;;;;;;;;;;6158578;23;20403;-87
2023/09/05 00:53:30;;;;;;;1.00;1.00;;;15.00;99.90;;;;;;6134859;23;20419;-88
2023/09/05 00:56:27;;;;;;;2.10;1.90;;;;;;;;;;6139902;23;20391;-89
2023/09/05 00:58:59;;;;;;;1.47;1.37;;;;;;;;;;6136111;23;20407;-86
2023/09/05 01:01:34;;;;;;;2.90;2.63;;;15.00;99.90;;;;;;6159199;23;20439;-87
2023/09/05 01:04:13;;;;;;;3.10;2.90;;;;;;;;;;6283224;22;20636;-89
2023/09/05 01:07:48;;;;;;;0.60;0.60;;;14.90;99.90;;;;;;6161588;23;20422;-89
2023/09/05 01:10:43;;;;;;;1.37;1.27;;;;;;;;;;6106702;23;20635;-87
2023/09/05 01:13:54;;;;;;;1.57;1.50;;;14.80;99.90;;;;;;6106199;23;20458;-88
2023/09/05 01:16:44;;;;;;;0.50;0.50;;;;;;;;;;6083221;23;20744;-86
2023/09/05 01:19:48;;;;;;;;;;;;;;;;;;;;;
2023/09/05 01:26:17;;;;;;;;;;;;;;;;;;;;;
2023/09/05 01:29:45;;;;;;;;;;;;;;;;;;;;;
2023/09/05 01:33:43;;;;;;;;;;;;;;;;;;;;;
2023/09/05 01:37:29;;;;;;;6.27;2.03;;;14.60;99.90;;;;;;6152118;23;20510;-91
2023/09/05 01:40:11;;;;;;;;;;;;;;;;;;;;;
2023/09/05 01:43:22;;;;;;;;;;;;;;;;;;;;;
2023/09/05 01:46:35;;;;;;;0.50;0.50;;;;;;;;;;6284399;22;20386;-89
2023/09/05 01:50:07;;;;;;;;;;;;;;;;;;;;;
2023/09/05 01:53:15;;;;;;;0.73;0.73;;;14.60;99.90;;;;;;6155161;23;20437;-90
2023/09/05 01:56:17;;;;;;;0.50;0.50;;;14.40;99.90;;;;;;6074411;23;20398;-88
2023/09/05 01:59:24;;;;;;;1.27;1.27;;;14.60;99.90;;;;;;6082293;23;20397;-87
2023/09/05 02:02:05;;;;;;;0.77;0.77;;;14.70;99.90;;;;;;6220134;23;20449;-88
2023/09/05 02:05:04;;;;;;;1.37;1.27;;;14.60;99.90;;;;;;6227432;23;20492;-87
2023/09/05 02:07:57;;;;;;;0.63;0.63;;;14.50;99.90;;;;;;6213897;23;20520;-87
2023/09/05 02:11:15;;;;;;;1.47;1.47;;;14.50;99.90;;;;;;6274585;22;20409;-86
2023/09/05 02:13:53;;;;;;;1.33;1.33;;;;;;;;;;6244405;22;20427;-88
2023/09/05 02:16:49;;;;;;;1.20;1.20;;;14.40;99.90;;;;;;6289964;22;20414;-87
2023/09/05 02:22:30;;;;;;;1.03;1.03;;;14.50;99.90;;;;;;6297313;22;20427;-86
2023/09/05 02:25:00;;;;;;;1.13;1.13;;;;;;;;;;6260499;22;20509;-80
2023/09/05 02:27:46;;;;;;;0.70;0.70;;;14.50;99.90;;;;;;6285157;22;20391;-89
2023/09/05 02:30:42;;;;;;;0.97;0.97;;;14.40;99.90;;;;;;6219999;22;20404;-86
2023/09/05 02:33:21;;;;;;;1.00;1.00;;;;;;;;;;6234866;23;20460;-88
2023/09/05 02:36:30;;;;;;;2.00;1.80;;;14.30;99.90;;;;;;6223506;23;20450;-89
2023/09/05 02:39:14;;;;;;;0.67;0.67;;;;;;;;;;6226089;23;20408;-84
2023/09/05 02:45:54;;;;;;;;;;;;;;;;;;;;;
2023/09/05 02:48:50;;;;;;;0.83;0.83;;;;;;;;;;6145978;22;20398;-88
2023/09/05 02:51:27;;;;;;;1.37;1.27;;;14.10;99.90;;;;;;6281273;22;20468;-88
2023/09/05 02:54:00;;;;;;;1.10;1.10;;;;;;;;;;6304841;22;20781;-84
2023/09/05 02:56:31;;;;;;;0.87;0.87;;;;;;;;;;6281261;22;20768;-86
2023/09/05 03:05:39;;;;;;;;;;;;;;;;;;;;;
2023/09/05 03:08:38;;;;;;;;;;;;;;;;;;;;;
2023/09/05 03:11:10;;;;;;;1.53;1.43;;;;;;;;;;6283389;22;20408;-84
2023/09/05 03:13:43;;;;;;;1.17;1.17;;;13.80;99.90;;;;;;6281198;22;20415;-88
2023/09/05 03:16:15;;;;;;;1.10;1.10;;;;;;;;;;6278001;22;21034;-84
2023/09/05 03:18:43;;;;;;;1.30;1.30;;;;;;;;;;6282052;22;20761;-86
2023/09/05 03:21:18;;;;;;;1.00;1.00;;;13.70;99.90;;;;;;6279968;22;20464;-86
2023/09/05 03:23:46;;;;;;;1.27;1.27;;;;;;;;;;6278108;22;20820;-86
2023/09/05 03:26:18;;;;;;;3.93;1.80;;;13.70;99.90;;;;;;6281366;22;20407;-86
2023/09/05 03:28:47;;;;;;;1.37;1.37;;;;;;;;;;6280985;22;20375;-84
2023/09/05 03:31:15;;;;;;;1.53;1.43;;;;;;;;;;6282520;22;20708;-85
2023/09/05 03:33:48;;;;;;;3.80;3.43;;;;;;;;;;6282535;22;20388;-85
2023/09/05 03:36:26;;;;;;;0.50;0.50;;;;;;;;;;6281775;22;20395;-87
2023/09/05 03:38:57;;;;;;;2.37;1.77;;;;;;;;;;6283184;22;20439;-86
2023/09/05 03:44:31;;;;;;;1.23;1.23;;;;;;;;;;6294079;22;20422;-87
2023/09/05 03:46:59;;;;;;;1.17;1.17;;;;;;;;;;6284634;22;20459;-86
2023/09/05 03:49:31;;;;;;;0.70;0.70;;;;;;;;;;6282541;22;20426;-85
2023/09/05 03:52:03;;;;;;;2.00;1.80;;;;;;;;;;6258301;22;20413;-87
2023/09/05 03:54:40;;;;;;;3.60;2.60;;;;;;;;;;6284881;22;20403;-87
2023/09/05 03:57:26;;;;;;;0.90;0.90;;;;;;;;;;6284345;22;20411;-86
2023/09/05 03:59:56;;;;;;;1.23;1.13;;;;;;;;;;6284153;22;20521;-87
2023/09/05 04:02:25;;;;;;;1.83;1.73;;;;;;;;;;6284306;22;20415;-85
2023/09/05 04:04:55;;;;;;;2.00;1.90;;;;;;;;;;6282279;22;20415;-83
2023/09/05 04:07:28;;;;;;;3.07;2.77;;;;;;;;;;6284204;22;20732;-87
2023/09/05 04:10:26;;;;;;;;;;;;;;;;;;;;;
2023/09/05 04:13:22;;;;;;;0.90;0.90;;;;;;;;;;6284433;22;20573;-89
2023/09/05 04:16:09;;;;;;;1.47;1.40;;;13.50;99.90;;;;;;6283000;22;20394;-85
2023/09/05 04:18:50;;;;;;;4.30;3.93;;;;;;;;;;6284587;22;20407;-87
2023/09/05 04:21:28;;;;;;;4.30;2.93;;;;;;;;;;6285040;22;20463;-86
2023/09/05 04:31:30;;;;;;;2.50;1.67;;;13.60;99.90;;;;;;6293939;22;20529;-89
2023/09/05 04:34:17;;;;;;;2.30;2.20;;;;;;;;;;6293814;22;20391;-86
2023/09/05 04:36:48;;;;;;;3.70;3.50;;;;;;;;;;6288649;22;20368;-85
2023/09/05 04:39:24;;;;;;;2.20;2.10;;;;;;;;;;6291497;22;20404;-85
2023/09/05 04:42:09;;;;;;;1.10;1.10;;;;;;;;;;6285201;22;20484;-85
2023/09/05 04:45:04;;;;;;;0.70;0.70;;;;;;;;;;6225239;22;20484;-88
2023/09/05 04:52:09;;;;;;;1.33;1.23;;;14.00;99.90;;;;;;6177459;23;20426;-87
2023/09/05 04:55:32;;;;;;;2.10;1.90;;;14.10;99.90;;;;;;6213189;22;20404;-87
2023/09/05 04:58:33;;;;;;;;;;;;;;;;;;;;;
2023/09/05 05:05:30;;;;;;;1.27;1.27;;;14.50;99.90;;;;;;6273459;22;20435;-88
2023/09/05 05:08:36;;;;;;;0.93;0.93;;;;;;;;;;6282184;22;20478;-86
2023/09/05 05:11:40;;;;;;;;;;;;;;;;;;;;;
2023/09/05 05:17:54;;;;;;;3.40;1.83;;;;;;;;;;6265818;22;20583;-89
2023/09/05 05:20:45;;;;;;;0.60;0.60;;;15.30;99.90;;;;;;6297604;22;20514;-89
2023/09/05 05:23:38;;;;;;;1.70;1.60;;;;;;;;;;6185711;23;20413;-84
2023/09/05 05:26:18;;;;;;;1.73;1.63;;;;;;;;;;6201646;23;20381;-88
2023/09/05 05:28:57;;;;;;;;;;;;;;;;;;;;;
2023/09/05 05:31:43;;;;;;;2.73;2.53;;;15.80;99.90;;;;;;6191662;23;20431;-87
2023/09/05 05:34:25;;;;;;;1.23;1.17;;;15.90;99.90;;;;;;6191333;23;20377;-90
2023/09/05 05:36:58;;;;;;;0.50;0.50;;;;;;;;;;6165997;23;20383;-89
2023/09/05 05:39:31;;;;;;;1.23;1.13;;;;;;;;;;6284568;22;20490;-91
2023/09/05 05:42:03;;;;;;;1.83;1.73;;;;;;;;;;6289511;22;20411;-89
2023/09/05 05:44:33;;;;;;;2.23;2.13;;;;;;;;;;6283993;22;20466;-84
2023/09/05 05:47:02;;;;;;;2.20;2.10;;;;;;;;;;6285571;22;20613;-89
2023/09/05 05:49:39;;;;;;;1.80;1.70;;;;;;;;;;6286999;22;20437;-89
2023/09/05 05:52:08;;;;;;;0.87;0.87;;;;;;;;;;6286547;22;20415;-87
2023/09/05 05:54:54;;;;;;;1.43;1.33;;;;;;;;;;6288479;22;20383;-86
2023/09/05 05:57:21;;;;;;;4.07;3.77;;;;;;;;;;6286993;22;20412;-86
2023/09/05 05:59:51;;;;;;;1.57;1.47;;;17.00;99.90;;;;;;6283197;22;20494;-87
2023/09/05 06:02:19;;;;;;;1.40;1.40;;;;;;;;;;6284743;22;20435;-89
2023/09/05 06:05:27;;;;;;;0.60;0.60;;;;;;;;;;6287967;22;20391;-88
2023/09/05 06:07:56;;;;;;;0.60;0.60;;;;;;;;;;6296723;22;20407;-84
2023/09/05 06:10:27;;;;;;;0.60;0.60;;;;;;;;;;6297028;22;20416;-85
2023/09/05 06:12:57;;;;;;;0.70;0.70;;;;;;;;;;6290277;22;20463;-85
2023/09/05 06:15:28;;;;;;;0.63;0.63;;;;;;;;;;6295838;22;20384;-85
2023/09/05 06:17:55;;;;;;;0.70;0.70;;;;;;;;;;6289104;22;20498;-87
2023/09/05 06:20:33;;;;;;;0.90;0.90;;;;;;;;;;6284237;22;20415;-88
2023/09/05 06:23:02;;;;;;;0.93;0.93;;;;;;;;;;6285536;22;20466;-84
2023/09/05 06:25:39;;;;;;;2.87;2.23;;;;;;;;;;6283845;22;20480;-87
2023/09/05 06:28:07;;;;;;;1.07;1.07;;;;;;;;;;6282144;22;20378;-86
2023/09/05 06:30:35;;;;;;;0.60;0.60;;;;;;;;;;6285460;22;20388;-86
2023/09/05 06:33:03;;;;;;;1.13;1.13;;;;;;;;;;6285404;22;20369;-86
2023/09/05 06:35:30;;;;;;;1.80;1.47;;;;;;;;;;6282446;22;20638;-86
2023/09/05 06:37:58;;;;;;;0.80;0.80;;;;;;;;;;6283468;22;20414;-84
2023/09/05 06:40:26;;;;;;;0.70;0.70;;;;;;;;;;6284490;22;20390;-85
2023/09/05 06:42:53;;;;;;;0.93;0.93;;;;;;;;;;6284544;22;20503;-85
2023/09/05 06:45:21;;;;;;;0.83;0.83;;;;;;;;;;6283045;22;20381;-85
2023/09/05 06:47:51;;;;;;;0.90;0.90;;;;;;;;;;6284167;22;20384;-85
2023/09/05 06:50:19;;;;;;;0.70;0.70;;;;;;;;;;6283304;22;20415;-85
2023/09/05 06:55:16;;;;;;;1.43;1.33;;;;;;;;;;6252227;23;20355;-85
2023/09/05 06:57:46;;;;;;;1.30;1.20;;;;;;;;;;6251837;23;20704;-86
2023/09/05 07:00:25;;;;;;;0.70;0.70;;;;;;;;;;6255156;22;20455;-88
2023/09/05 07:02:54;;;;;;;2.20;2.00;;;;;;;;;;6255275;23;20379;-86
2023/09/05 07:05:26;;;;;;;0.70;0.70;;;;;;;;;;6255451;23;20363;-87
2023/09/05 07:07:54;;;;;;;6.20;2.10;;;23.00;99.90;;;;;;6252139;23;20391;-86
2023/09/05 07:10:22;;;;;;;0.97;0.97;;;;;;;;;;6256321;23;20427;-84
2023/09/05 07:12:50;;;;;;;1.00;1.00;;;;;;;;;;6253514;23;20381;-86
2023/09/05 07:15:17;;;;;;;7.80;3.53;;;;;;;;;;6254884;23;20372;-87
2023/09/05 07:17:55;;;;;;;2.67;2.50;;;;;;;;;;6255930;23;20653;-86
2023/09/05 07:20:24;;;;;;;0.90;0.90;;;;;;;;;;6253524;23;20754;-81
2023/09/05 07:22:54;;;;;;;1.97;1.87;;;;;;;;;;6256222;23;20358;-87
2023/09/05 07:25:30;;;;;;;1.27;1.27;;;;;;;;;;6255413;22;20690;-84
2023/09/05 07:28:00;;;;;;;1.53;1.43;;;;;;;;;;6254675;23;20370;-86
2023/09/05 07:30:27;;;;;;;1.23;1.23;;;;;;;;;;6252875;23;20405;-84
2023/09/05 07:32:55;;;;;;;1.37;1.37;;;;;;;;;;6255085;23;20387;-87
2023/09/05 07:35:25;;;;;;;1.20;1.20;;;;;;;;;;6258525;22;20374;-87
2023/09/05 07:37:52;;;;;;;1.70;1.60;;;27.30;90.10;;;;;;6257926;22;20413;-85
2023/09/05 07:40:22;;;;;;;1.33;1.33;;;27.50;87.50;;;;;;6258355;23;20611;-86
2023/09/05 07:42:50;;;;;;;2.07;1.97;;;;;;;;;;6257477;23;20688;-88
2023/09/05 07:45:21;;;;;;;1.10;1.10;;;;;;;;;;6254113;23;20595;-87
2023/09/05 07:47:53;;;;;;;1.33;1.33;;;28.00;83.10;;;;;;6258828;22;20442;-88
2023/09/05 07:50:36;;;;;;;1.10;1.10;;;;;;;;;;6239068;23;20424;-86
2023/09/05 07:53:04;;;;;;;1.53;1.50;;;;;;;;;;6259379;22;20412;-86
2023/09/05 07:55:32;;;;;;;1.40;1.40;;;;;;;;;;6286630;22;20727;-88
2023/09/05 07:58:05;;;;;;;1.20;1.20;;;;;;;;;;6286942;22;20389;-86
2023/09/05 08:00:34;;;;;;;1.37;1.37;;;;;;;;;;6285631;22;20410;-87
2023/09/05 08:03:03;;;;;;;1.10;1.10;;;;;;;;;;6293605;22;20452;-86
2023/09/05 08:05:31;;;;;;;1.20;1.20;;;;;;;;;;6295224;22;20715;-86
2023/09/05 08:08:02;;;;;;;2.60;2.40;;;28.00;73.30;;;;;;6278853;22;20535;-88
2023/09/05 08:10:29;;;;;;;1.40;1.40;;;;;;;;;;6288277;22;20441;-89
2023/09/05 08:12:59;;;;;;;1.87;1.77;;;;;;;;;;6289335;22;20403;-85
2023/09/05 08:15:26;;;;;;;1.83;1.73;;;;;;;;;;6292634;22;20426;-88
2023/09/05 08:17:54;;;;;;;2.23;2.13;;;;;;;;;;6288702;22;20418;-84
2023/09/05 08:20:22;;;;;;;3.13;2.17;;;;;;;;;;6289480;22;20444;-85
2023/09/05 08:23:02;;;;;;;1.03;1.03;;;27.50;74.70;;;;;;6296039;22;20430;-85
2023/09/05 08:25:30;;;;;;;2.00;1.90;;;;;;;;;;6288306;22;20385;-85
2023/09/05 08:28:01;;;;;;;1.47;1.47;;;27.80;72.90;;;;;;6291071;22;20407;-86
2023/09/05 08:38:34;;;;;;;1.17;1.17;;;;;;;;;;6276344;22;20486;-86
2023/09/05 08:41:02;;;;;;;5.23;2.13;;;;;;;;;;6290815;22;20429;-83
2023/09/05 08:43:29;;;;;;;1.93;1.83;;;;;;;;;;6291463;22;20422;-85
2023/09/05 08:46:02;;;;;;;1.20;1.20;;;28.50;66.50;;;;;;6292432;22;20414;-82
2023/09/05 08:48:39;;;;;;;1.30;1.30;;;;;;;;;;6289535;22;20634;-82
2023/09/05 08:51:22;;;;;;;2.53;2.33;;;;;;;;;;6291549;22;20462;-84
2023/09/05 08:53:58;;;;;;;1.10;1.10;;;27.60;68.50;;;;;;6287330;22;20399;-82
2023/09/05 08:56:26;;;;;;;1.10;1.10;;;;;;;;;;6289464;22;20755;-83
2023/09/05 08:58:57;;;;;;;1.33;1.23;;;;;;;;;;6293229;22;21052;-83
2023/09/05 09:01:32;;;;;;;2.80;2.60;;;28.00;67.90;;;;;;6293474;22;20427;-87
2023/09/05 09:04:01;;;;;;;1.47;1.47;;;;;;;;;;6268584;22;20792;-87
2023/09/05 09:06:31;;;;;;;1.20;1.20;;;28.50;63.40;;;;;;6279372;22;20457;-87
2023/09/05 09:09:03;;;;;;;5.23;1.77;;;;;;;;;;6284771;22;20383;-85
2023/09/05 09:11:30;;;;;;;1.47;1.40;;;28.00;65.70;;;;;;6290296;22;20412;-87
2023/09/05 09:13:59;;;;;;;1.63;1.53;;;27.50;70.30;;;;;;6287883;22;20595;-88
2023/09/05 09:16:26;;;;;;;1.07;1.07;;;27.40;71.20;;;;;;6290687;22;20493;-85
2023/09/05 09:19:03;;;;;;;1.00;1.00;;;27.50;67.90;;;;;;6289505;22;20413;-87
2023/09/05 09:21:32;;;;;;;1.30;1.30;;;27.20;66.50;;;;;;6287512;22;20658;-86
2023/09/05 09:24:05;;;;;;;1.10;1.10;;;26.10;68.90;;;;;;6286056;22;20501;-83
2023/09/05 09:26:33;;;;;;;6.53;2.40;;;26.50;70.70;;;;;;6283860;22;20568;-85
2023/09/05 09:29:06;;;;;;;1.00;1.00;;;26.10;79.10;;;;;;6287753;22;20391;-87
2023/09/05 09:42:23;;;;;;;1.13;1.13;;;25.40;69.20;;;;;;5164162;27;20625;-82
2023/09/05 09:44:52;;;;;;;1.63;1.53;;;;;;;;;;5168961;27;20656;-86
2023/09/05 09:47:19;;;;;;;1.33;1.33;;;;;;;;;;5162302;27;20425;-86
2023/09/05 09:49:49;;;;;;;0.90;0.90;;;25.80;71.60;;;;;;5160048;27;20528;-86
2023/09/05 09:52:20;;;;;;;1.73;1.63;;;25.30;69.80;;;;;;5178491;27;20442;-84
2023/09/05 09:54:53;;;;;;;1.33;1.30;;;25.10;72.40;;;;;;5176570;27;20639;-87
2023/09/05 09:57:33;;;;;;;1.40;1.40;;;25.20;72.00;;;;;;5160821;27;20733;-87
2023/09/05 10:00:15;;;;;;;1.00;1.00;;;25.20;72.50;;;;;;5176366;27;20440;-83
2023/09/05 10:02:50;;;;;;;2.50;2.40;;;;;;;;;;5144807;27;20418;-87
2023/09/05 10:05:19;;;;;;;1.23;1.23;;;;;;;;;;5169492;27;20390;-84
2023/09/05 10:07:47;;;;;;;1.10;1.10;;;24.50;73.10;;;;;;5163791;27;20448;-88
2023/09/05 10:10:18;;;;;;;1.10;1.10;;;;;;;;;;5162055;27;20462;-86
2023/09/05 10:12:46;;;;;;;1.53;1.43;;;24.60;74.70;;;;;;5144459;27;20438;-86
2023/09/05 10:15:15;;;;;;;3.53;2.40;;;;;;;;;;5167175;27;20440;-83
2023/09/05 10:17:44;;;;;;;0.90;0.90;;;24.80;73.40;;;;;;5164879;27;20651;-86
2023/09/05 10:20:19;;;;;;;0.90;0.90;;;24.90;73.90;;;;;;5177572;27;20417;-90
2023/09/05 10:22:55;;;;;;;3.53;3.23;;;24.60;74.80;;;;;;5169666;27;20411;-87
2023/09/05 10:25:27;;;;;;;2.70;2.50;;;24.40;72.40;;;;;;5166877;27;20410;-84
2023/09/05 10:27:56;;;;;;;0.83;0.83;;;;;;;;;;5163995;27;20407;-89
2023/09/05 10:30:23;;;;;;;1.10;1.10;;;;;;;;;;5147066;27;20535;-85
2023/09/05 10:32:55;;;;;;;0.80;0.80;;;24.60;73.30;;;;;;5150919;27;20555;-88
2023/09/05 10:35:23;;;;;;;0.90;0.90;;;;;;;;;;5169528;27;20413;-83
2023/09/05 10:37:58;;;;;;;0.93;0.93;;;24.30;74.50;;;;;;5229950;22;20483;-88
2023/09/05 10:40:34;;;;;;;1.10;1.10;;;24.40;74.30;;;;;;5047122;28;20418;-86
2023/09/05 10:43:08;;;;;;;1.20;1.20;;;24.10;75.20;;;;;;5034812;28;20436;-84
2023/09/05 10:45:37;;;;;;;0.83;0.83;;;24.30;74.10;;;;;;5184538;23;20452;-87
2023/09/05 10:48:15;;;;;;;1.30;1.30;;;24.40;75.00;;;;;;5058191;28;20602;-87
2023/09/05 10:51:16;;;;;;;1.47;1.37;;;24.50;75.70;;;;;;5266380;22;20546;-87
2023/09/05 10:53:46;;;;;;;1.23;1.20;;;24.70;75.30;;;;;;5473629;23;20462;-87
2023/09/05 10:56:43;;;;;;;0.80;0.80;;;24.80;78.70;;;;;;5135168;23;20762;-88
2023/09/05 11:02:10;;;;;;;1.50;1.40;;;24.50;88.30;;;;;;5143293;23;20472;-84
2023/09/05 11:04:39;;;;;;;2.90;2.70;;;;;;;;;;5078128;28;20454;-84
2023/09/05 11:07:09;;;;;;;1.10;1.10;;;24.10;74.20;;;;;;5084516;28;20440;-87
2023/09/05 11:09:41;;;;;;;1.73;1.63;;;24.20;74.00;;;;;;5077082;28;20414;-85
2023/09/05 11:12:10;;;;;;;0.90;0.90;;;;;;;;;;5086389;28;20425;-86
2023/09/05 11:14:39;;;;;;;0.90;0.90;;;;;;;;;;5145202;22;20437;-83
2023/09/05 11:17:15;;;;;;;1.20;1.20;;;24.50;76.10;;;;;;5044496;28;20458;-86
2023/09/05 11:19:53;;;;;;;0.90;0.90;;;24.70;74.00;;;;;;5031702;28;20431;-86
2023/09/05 11:22:25;;;;;;;1.10;1.10;;;24.80;74.60;;;;;;5259881;23;20504;-83
2023/09/05 11:27:32;;;;;;;1.50;1.40;;;25.00;75.20;;;;;;5298751;22;20597;-89
2023/09/05 11:30:02;;;;;;;1.63;1.53;;;24.80;74.60;;;;;;5373921;22;20482;-86
2023/09/05 11:32:39;;;;;;;1.70;1.53;;;24.50;75.20;;;;;;5156068;22;20498;-89
2023/09/05 11:35:10;;;;;;;1.20;1.20;;;;;;;;;;5065426;28;20439;-87
2023/09/05 11:37:37;;;;;;;2.10;2.00;;;;;;;;;;5069534;28;20407;-87
2023/09/05 11:40:17;;;;;;;1.00;1.00;;;24.50;76.20;;;;;;5145056;22;20487;-89
2023/09/05 11:42:44;;;;;;;1.30;1.30;;;;;;;;;;5087759;28;20434;-81
2023/09/05 11:45:17;;;;;;;1.73;1.63;;;24.40;77.50;;;;;;5383350;22;21591;-85
2023/09/05 11:47:48;;;;;;;1.20;1.20;;;24.50;77.60;;;;;;5038961;28;20747;-87
2023/09/05 11:50:17;;;;;;;1.10;1.10;;;24.50;77.10;;;;;;5286826;22;20437;-87
2023/09/05 11:52:49;;;;;;;1.10;1.10;;;;;;;;;;5546770;22;20433;-87
2023/09/05 11:55:17;;;;;;;1.27;1.20;;;;;;;;;;5027284;28;20412;-83
2023/09/05 11:57:44;;;;;;;1.10;1.10;;;;;;;;;;5034301;28;20436;-85
2023/09/05 12:00:13;;;;;;;1.93;1.83;;;;;;;;;;5024149;28;20421;-82
2023/09/05 12:02:40;;;;;;;1.67;1.67;;;;;;;;;;5676394;22;20510;-83
2023/09/05 12:05:12;;;;;;;3.50;3.20;;;25.00;74.80;;;;;;5214470;22;20503;-89
2023/09/05 12:07:53;;;;;;;1.50;1.40;;;24.90;75.00;;;;;;5057825;28;20904;-86
2023/09/05 12:10:21;;;;;;;1.93;1.53;;;;;;;;;;5064592;28;20530;-85
2023/09/05 12:12:58;;;;;;;0.80;0.80;;;24.90;83.70;;;;;;5063829;28;20455;-86
2023/09/05 12:15:36;;;;;;;1.07;1.07;;;25.00;75.90;;;;;;5065627;28;20829;-87
2023/09/05 12:18:07;;;;;;;0.90;0.90;;;24.70;74.70;;;;;;5066091;28;20421;-85
2023/09/05 12:20:35;;;;;;;1.00;1.00;;;;;;;;;;5064067;28;20733;-84
2023/09/05 12:23:05;;;;;;;0.90;0.90;;;;;;;;;;5065978;28;20420;-83
2023/09/05 12:25:35;;;;;;;1.70;1.20;;;;;;;;;;5294262;22;20465;-83
2023/09/05 12:28:23;;;;;;;1.77;1.67;;;25.00;75.70;;;;;;5299184;22;20561;-89
2023/09/05 12:31:05;;;;;;;0.90;0.90;;;25.20;74.90;;;;;;5859650;22;20482;-88
2023/09/05 12:41:50;;;;;;;2.77;1.73;;;;;;;;;;5095006;22;20486;-87
2023/09/05 12:44:18;;;;;;;1.40;1.37;;;;;;;;;;5067361;28;20444;-84
2023/09/05 12:46:45;;;;;;;1.77;1.67;;;;;;;;;;5066607;28;20417;-86
2023/09/05 12:49:18;;;;;;;1.10;1.10;;;;;;;;;;5062675;28;20524;-85
2023/09/05 12:51:45;;;;;;;4.70;2.93;;;;;;;;;;5065611;28;20466;-88
2023/09/05 12:54:13;;;;;;;1.63;1.60;;;;;;;;;;5067700;28;21027;-87
2023/09/05 12:56:43;;;;;;;1.43;1.40;;;;;;;;;;5075428;28;20501;-83
2023/09/05 13:01:56;;;;;;;1.23;1.23;;;;;;;;;;5177458;22;20490;-87
2023/09/05 13:06:59;;;;;;;1.20;1.20;;;;;;;;;;5205619;22;20543;-86
2023/09/05 13:09:26;;;;;;;1.00;1.00;;;;;;;;;;5086828;28;20435;-85
2023/09/05 13:11:55;;;;;;;1.03;1.03;;;;;;;;;;5086451;28;20464;-87
2023/09/05 13:14:23;;;;;;;1.87;1.77;;;;;;;;;;5362459;22;21658;-87
2023/09/05 13:16:51;;;;;;;1.77;1.67;;;;;;;;;;5563456;22;20502;-86
2023/09/05 13:19:18;;;;;;;2.60;2.40;;;;;;;;;;5075108;28;20489;-88
2023/09/05 13:21:46;;;;;;;2.03;1.90;;;;;;;;;;5071460;28;20497;-82
2023/09/05 13:24:14;;;;;;;0.90;0.90;;;;;;;;;;5071126;28;20793;-84
2023/09/05 13:26:41;;;;;;;1.37;1.27;;;;;;;;;;5079854;28;20431;-83
2023/09/05 13:29:08;;;;;;;0.90;0.90;;;;;;;;;;5081915;28;20528;-90
2023/09/05 13:34:18;;;;;;;1.00;1.00;;;25.70;70.20;;;;;;5166436;22;20600;-84
2023/09/05 13:39:35;;;;;;;0.97;0.97;;;;;;;;;;5541601;23;20497;-88
2023/09/05 13:42:02;;;;;;;1.10;1.10;;;;;;;;;;5179397;22;20504;-81
2023/09/05 13:44:32;;;;;;;1.30;1.30;;;25.30;69.40;;;;;;5060464;28;20451;-83
2023/09/05 13:47:00;;;;;;;1.97;1.80;;;25.00;73.00;;;;;;5040635;28;20406;-83
2023/09/05 13:49:29;;;;;;;1.23;1.23;;;25.00;73.50;;;;;;5395831;22;20480;-88
2023/09/05 13:51:56;;;;;;;1.00;1.00;;;25.00;74.30;;;;;;5075165;28;20453;-89
2023/09/05 13:54:28;;;;;;;1.10;1.10;;;27.60;76.50;;;;;;5086273;28;20512;-85
2023/09/05 13:57:07;;;;;;;1.57;1.20;;;24.90;72.00;;;;;;5081555;28;20446;-86
2023/09/05 13:59:35;;;;;;;0.90;0.90;;;;;;;;;;5082750;28;20430;-85
2023/09/05 14:02:05;;;;;;;0.97;0.97;;;24.70;72.20;;;;;;5072337;28;20448;-88
2023/09/05 14:04:41;;;;;;;1.00;1.00;;;;;;;;;;5220395;22;20480;-81
2023/09/05 14:07:09;;;;;;;2.50;2.10;;;;;;;;;;5325519;22;20575;-83
2023/09/05 14:09:37;;;;;;;1.87;1.77;;;;;;;;;;5106194;22;20510;-85
2023/09/05 14:17:23;;;;;;;0.90;0.90;;;24.60;76.40;;;;;;5233034;23;20511;-85
2023/09/05 14:19:52;;;;;;;1.20;1.10;;;;;;;;;;5102116;28;20510;-86
2023/09/05 14:22:20;;;;;;;0.90;0.90;;;;;;;;;;5255150;22;20417;-87
2023/09/05 14:24:49;;;;;;;0.90;0.90;;;;;;;;;;5071599;28;20429;-83
2023/09/05 14:27:17;;;;;;;2.07;1.47;;;;;;;;;;5086964;22;20484;-81
2023/09/05 14:29:48;;;;;;;1.20;1.20;;;;;;;;;;5055131;28;20487;-80
2023/09/05 14:32:26;;;;;;;0.90;0.90;;;;;;;;;;5055098;28;20431;-85
2023/09/05 14:34:54;;;;;;;1.10;1.10;;;;;;;;;;5061017;28;20437;-87
2023/09/05 14:37:23;;;;;;;1.00;1.00;;;24.60;70.40;;;;;;5394995;22;20518;-81
2023/09/05 14:42:35;;;;;;;1.13;1.13;;;;;;;;;;5048236;28;20663;-86
2023/09/05 14:45:04;;;;;;;0.90;0.90;;;;;;;;;;5269690;22;20502;-83
2023/09/05 14:47:41;;;;;;;1.00;1.00;;;24.30;71.40;;;;;;5049037;28;20408;-89
2023/09/05 14:50:10;;;;;;;0.90;0.90;;;24.50;78.10;;;;;;5054873;28;20418;-83
2023/09/05 14:55:15;;;;;;;1.53;1.43;;;24.30;71.80;;;;;;5352561;22;20857;-87
2023/09/05 14:57:47;;;;;;;1.63;1.53;;;;;;;;;;5087808;28;20494;-84
2023/09/05 15:00:16;;;;;;;1.63;1.53;;;;;;;;;;5067516;28;20433;-86
2023/09/05 15:02:44;;;;;;;1.30;1.30;;;;;;;;;;5087776;28;20834;-81
2023/09/05 15:05:14;;;;;;;0.80;0.80;;;24.30;72.70;;;;;;5088990;28;20485;-89
2023/09/05 15:07:46;;;;;;;0.80;0.80;;;;;;;;;;5068265;28;20436;-89
2023/09/05 15:10:14;;;;;;;1.00;1.00;;;;;;;;;;5082496;28;20672;-85
2023/09/05 15:15:19;;;;;;;0.90;0.90;;;;;;;;;;5222617;22;20650;-84
2023/09/05 15:17:47;;;;;;;0.80;0.80;;;;;;;;;;5308211;23;20506;-88
2023/09/05 15:20:18;;;;;;;1.00;1.00;;;24.10;73.50;;;;;;5066373;28;20494;-87
2023/09/05 15:22:47;;;;;;;1.53;1.47;;;24.00;73.10;;;;;;5098066;22;20479;-86
2023/09/05 15:25:23;;;;;;;1.07;1.07;;;24.00;74.30;;;;;;5065079;28;20432;-89
2023/09/05 15:27:55;;;;;;;0.90;0.90;;;;;;;;;;5067084;28;20419;-87
2023/09/05 15:30:22;;;;;;;1.10;1.10;;;;;;;;;;5065545;28;20467;-87
2023/09/05 15:35:27;;;;;;;0.90;0.90;;;;;;;;;;5384939;22;20490;-90
2023/09/05 15:37:58;;;;;;;0.90;0.90;;;23.90;73.30;;;;;;5046962;28;20469;-88
2023/09/05 15:40:33;;;;;;;1.10;1.10;;;23.80;73.30;;;;;;5051910;28;20440;-85
2023/09/05 15:43:02;;;;;;;1.57;1.20;;;;;;;;;;5054053;28;20442;-88
2023/09/05 15:45:32;;;;;;;1.10;1.10;;;;;;;;;;5051380;28;20436;-82
2023/09/05 15:48:03;;;;;;;0.93;0.93;;;23.70;73.50;;;;;;5045474;28;20424;-90
2023/09/05 15:50:38;;;;;;;0.90;0.90;;;;;;;;;;5071178;28;20829;-83
2023/09/05 15:53:07;;;;;;;1.67;1.57;;;;;;;;;;5307524;22;20435;-82
2023/09/05 15:55:34;;;;;;;0.90;0.90;;;;;;;;;;5053406;28;20454;-85
2023/09/05 15:58:02;;;;;;;0.80;0.80;;;;;;;;;;5205583;23;20492;-85
2023/09/05 16:00:29;;;;;;;1.47;1.47;;;;;;;;;;5154811;22;20497;-86
2023/09/05 16:02:57;;;;;;;0.90;0.90;;;;;;;;;;5043755;28;20424;-88
2023/09/05 16:05:26;;;;;;;0.80;0.80;;;;;;;;;;5040516;28;20411;-84
2023/09/05 16:07:57;;;;;;;0.93;0.93;;;;;;;;;;5047831;28;20445;-87
2023/09/05 16:10:26;;;;;;;0.90;0.90;;;;;;;;;;5049608;28;20445;-79
2023/09/05 16:12:57;;;;;;;1.17;1.17;;;23.20;75.10;;;;;;5050035;28;20476;-90
2023/09/05 16:18:16;;;;;;;;;;;;;;;;;;;;;
2023/09/05 16:20:45;;;;;;;1.20;1.20;;;;;;;;;;5067499;28;20425;-86
2023/09/05 16:23:25;;;;;;;0.80;0.80;;;23.10;75.60;;;;;;5059675;28;20451;-86
2023/09/05 16:26:00;;;;;;;1.30;1.20;;;23.10;76.40;;;;;;5053616;28;20419;-89
2023/09/05 16:28:31;;;;;;;1.20;1.20;;;23.10;77.00;;;;;;5243990;22;20545;-89
2023/09/05 16:31:01;;;;;;;3.47;3.27;;;;;;;;;;5433879;22;20458;-86
2023/09/05 16:33:31;;;;;;;0.90;0.90;;;23.10;76.80;;;;;;5050199;28;20467;-87
2023/09/05 16:36:05;;;;;;;1.30;1.30;;;23.00;76.70;;;;;;5052124;28;20415;-88
2023/09/05 16:38:32;;;;;;;2.13;2.03;;;;;;;;;;5178699;22;20576;-86
2023/09/05 16:43:33;;;;;;;1.33;1.30;;;;;;;;;;5039782;28;20427;-82
2023/09/05 16:46:01;;;;;;;0.90;0.90;;;;;;;;;;5336234;22;20508;-87
2023/09/05 16:48:29;;;;;;;0.87;0.87;;;;;;;;;;5068567;28;20437;-88
2023/09/05 16:50:57;;;;;;;0.90;0.90;;;;;;;;;;5081259;28;20510;-89
2023/09/05 16:53:24;;;;;;;0.97;0.97;;;;;;;;;;5075699;28;20410;-89
2023/09/05 16:55:52;;;;;;;1.20;1.20;;;;;;;;;;5072489;28;20414;-87
2023/09/05 16:58:19;;;;;;;1.20;1.20;;;;;;;;;;5074696;28;20414;-85
2023/09/05 17:00:47;;;;;;;0.90;0.90;;;;;;;;;;5066574;28;20430;-87
2023/09/05 17:03:15;;;;;;;0.90;0.90;;;;;;;;;;5068101;28;20407;-86
2023/09/05 17:05:42;;;;;;;0.80;0.80;;;;;;;;;;5074744;28;20445;-86
2023/09/05 17:08:10;;;;;;;0.90;0.90;;;;;;;;;;5079731;28;20414;-86
2023/09/05 17:10:37;;;;;;;0.87;0.87;;;;;;;;;;5066748;28;20425;-87
2023/09/05 17:13:05;;;;;;;1.83;1.73;;;;;;;;;;5082513;28;20444;-84